sensor_id;sensor_type;location;lat;lon;timestamp;pressure;altitude;pressure_sealevel;temperature;humidity
13867;BME280;7003;46.982;15.248;2023-02-28T00:00:40;98045.25;;;-0.46;100.00
13867;BME280;7003;46.982;15.248;2023-02-28T00:03:07;98044.00;;;-0.44;100.00
13867;BME280;7003;46.982;15.248;2023-02-28T00:05:35;98041.63;;;-0.45;100.00
13867;BME280;7003;46.982;15.248;2023-02-28T00:08:02;98048.81;;;-0.52;100.00
13867;BME280;7003;46.982;15.248;2023-02-28T00:10:31;98052.00;;;-0.50;100.00
13867;BME280;7003;46.982;15.248;2023-02-28T00:13:03;98054.16;;;-0.47;100.00
13867;BME280;7003;46.982;15.248;2023-02-28T00:15:33;98050.97;;;-0.49;100.00
13867;BME280;7003;46.982;15.248;2023-02-28T00:18:05;98052.78;;;-0.50;100.00
13867;BME280;7003;46.982;15.248;2023-02-28T00:20:34;98061.56;;;-0.56;100.00
13867;BME280;7003;46.982;15.248;2023-02-28T00:23:04;98057.44;;;-0.52;100.00
13867;BME280;7003;46.982;15.248;2023-02-28T00:25:31;98053.72;;;-0.56;100.00
13867;BME280;7003;46.982;15.248;2023-02-28T00:28:00;98055.53;;;-0.56;100.00
13867;BME280;7003;46.982;15.248;2023-02-28T00:30:27;98055.84;;;-0.53;100.00
13867;BME280;7003;46.982;15.248;2023-02-28T00:32:57;98058.16;;;-0.56;100.00
13867;BME280;7003;46.982;15.248;2023-02-28T00:35:26;98057.31;;;-0.45;100.00
13867;BME280;7003;46.982;15.248;2023-02-28T00:37:54;98061.38;;;-0.38;100.00
13867;BME280;7003;46.982;15.248;2023-02-28T00:40:22;98065.59;;;-0.36;100.00
13867;BME280;7003;46.982;15.248;2023-02-28T00:42:52;98063.69;;;-0.53;100.00
13867;BME280;7003;46.982;15.248;2023-02-28T00:45:19;98057.22;;;-0.62;100.00
13867;BME280;7003;46.982;15.248;2023-02-28T00:47:46;98060.75;;;-0.56;100.00
13867;BME280;7003;46.982;15.248;2023-02-28T00:50:18;98055.97;;;-0.48;100.00
13867;BME280;7003;46.982;15.248;2023-02-28T00:52:47;98054.38;;;-0.49;100.00
13867;BME280;7003;46.982;15.248;2023-02-28T00:55:18;98054.41;;;-0.60;100.00
13867;BME280;7003;46.982;15.248;2023-02-28T00:57:45;98050.63;;;-0.53;100.00
13867;BME280;7003;46.982;15.248;2023-02-28T01:00:13;98047.47;;;-0.55;100.00
13867;BME280;7003;46.982;15.248;2023-02-28T01:02:41;98050.91;;;-0.66;100.00
13867;BME280;7003;46.982;15.248;2023-02-28T01:05:09;98045.41;;;-0.53;100.00
13867;BME280;7003;46.982;15.248;2023-02-28T01:07:38;98050.22;;;-0.73;100.00
13867;BME280;7003;46.982;15.248;2023-02-28T01:10:09;98058.59;;;-0.59;100.00
13867;BME280;7003;46.982;15.248;2023-02-28T01:12:39;98053.38;;;-0.59;100.00
13867;BME280;7003;46.982;15.248;2023-02-28T01:15:09;98056.34;;;-0.67;100.00
13867;BME280;7003;46.982;15.248;2023-02-28T01:17:38;98051.25;;;-0.74;100.00
13867;BME280;7003;46.982;15.248;2023-02-28T01:20:06;98045.13;;;-0.80;100.00
13867;BME280;7003;46.982;15.248;2023-02-28T01:22:34;98047.75;;;-0.91;100.00
13867;BME280;7003;46.982;15.248;2023-02-28T01:25:04;98054.13;;;-0.87;100.00
13867;BME280;7003;46.982;15.248;2023-02-28T01:27:33;98055.59;;;-0.80;100.00
13867;BME280;7003;46.982;15.248;2023-02-28T01:30:01;98046.72;;;-0.90;100.00
13867;BME280;7003;46.982;15.248;2023-02-28T01:32:29;98050.38;;;-0.91;100.00
13867;BME280;7003;46.982;15.248;2023-02-28T01:34:56;98045.31;;;-0.69;100.00
13867;BME280;7003;46.982;15.248;2023-02-28T01:37:23;98046.59;;;-0.72;100.00
13867;BME280;7003;46.982;15.248;2023-02-28T01:39:50;98039.13;;;-0.80;100.00
13867;BME280;7003;46.982;15.248;2023-02-28T01:42:20;98045.22;;;-0.74;100.00
13867;BME280;7003;46.982;15.248;2023-02-28T01:45:01;98041.59;;;-0.73;100.00
13867;BME280;7003;46.982;15.248;2023-02-28T01:47:32;98044.66;;;-0.65;100.00
13867;BME280;7003;46.982;15.248;2023-02-28T01:50:02;98046.38;;;-0.70;100.00
13867;BME280;7003;46.982;15.248;2023-02-28T01:52:31;98037.47;;;-0.58;100.00
13867;BME280;7003;46.982;15.248;2023-02-28T01:55:00;98046.59;;;-0.72;100.00
13867;BME280;7003;46.982;15.248;2023-02-28T01:57:32;98051.16;;;-0.79;100.00
13867;BME280;7003;46.982;15.248;2023-02-28T02:00:08;98049.78;;;-0.70;100.00
13867;BME280;7003;46.982;15.248;2023-02-28T02:02:38;98051.91;;;-0.67;100.00
13867;BME280;7003;46.982;15.248;2023-02-28T02:05:09;98047.03;;;-0.75;100.00
13867;BME280;7003;46.982;15.248;2023-02-28T02:07:41;98041.25;;;-0.77;100.00
13867;BME280;7003;46.982;15.248;2023-02-28T02:10:14;98042.97;;;-0.71;100.00
13867;BME280;7003;46.982;15.248;2023-02-28T02:15:39;98042.84;;;-0.76;100.00
13867;BME280;7003;46.982;15.248;2023-02-28T02:18:18;98036.16;;;-0.72;100.00
13867;BME280;7003;46.982;15.248;2023-02-28T02:21:24;98042.41;;;-0.73;100.00
13867;BME280;7003;46.982;15.248;2023-02-28T02:27:11;98040.91;;;-0.69;100.00
13867;BME280;7003;46.982;15.248;2023-02-28T02:30:06;98033.75;;;-0.73;100.00
13867;BME280;7003;46.982;15.248;2023-02-28T02:32:54;98041.25;;;-0.65;100.00
13867;BME280;7003;46.982;15.248;2023-02-28T02:35:31;98034.84;;;-0.58;100.00
13867;BME280;7003;46.982;15.248;2023-02-28T02:38:08;98040.00;;;-0.63;100.00
13867;BME280;7003;46.982;15.248;2023-02-28T02:40:42;98035.44;;;-0.67;100.00
13867;BME280;7003;46.982;15.248;2023-02-28T02:43:16;98037.38;;;-0.63;100.00
13867;BME280;7003;46.982;15.248;2023-02-28T02:45:48;98038.41;;;-0.64;100.00
13867;BME280;7003;46.982;15.248;2023-02-28T02:48:19;98041.56;;;-0.62;100.00
13867;BME280;7003;46.982;15.248;2023-02-28T02:50:54;98036.59;;;-0.63;100.00
13867;BME280;7003;46.982;15.248;2023-02-28T02:53:25;98034.41;;;-0.55;100.00
13867;BME280;7003;46.982;15.248;2023-02-28T02:55:55;98042.91;;;-0.59;100.00
13867;BME280;7003;46.982;15.248;2023-02-28T02:58:28;98044.16;;;-0.62;100.00
13867;BME280;7003;46.982;15.248;2023-02-28T03:01:01;98041.00;;;-0.64;100.00
13867;BME280;7003;46.982;15.248;2023-02-28T03:03:33;98038.94;;;-0.62;100.00
13867;BME280;7003;46.982;15.248;2023-02-28T03:06:03;98049.66;;;-0.63;100.00
13867;BME280;7003;46.982;15.248;2023-02-28T03:08:34;98047.25;;;-0.65;100.00
13867;BME280;7003;46.982;15.248;2023-02-28T03:11:04;98041.25;;;-0.65;100.00
13867;BME280;7003;46.982;15.248;2023-02-28T03:17:02;98046.78;;;-0.62;100.00
13867;BME280;7003;46.982;15.248;2023-02-28T03:22:45;98038.84;;;-0.67;100.00
13867;BME280;7003;46.982;15.248;2023-02-28T03:25:20;98042.03;;;-0.65;100.00
13867;BME280;7003;46.982;15.248;2023-02-28T03:27:59;98046.69;;;-0.67;100.00
13867;BME280;7003;46.982;15.248;2023-02-28T03:30:33;98046.13;;;-0.69;100.00
13867;BME280;7003;46.982;15.248;2023-02-28T03:33:08;98046.13;;;-0.69;100.00
13867;BME280;7003;46.982;15.248;2023-02-28T03:35:43;98043.75;;;-0.70;100.00
13867;BME280;7003;46.982;15.248;2023-02-28T03:38:17;98039.34;;;-0.70;100.00
13867;BME280;7003;46.982;15.248;2023-02-28T03:40:48;98044.56;;;-0.70;100.00
13867;BME280;7003;46.982;15.248;2023-02-28T03:43:24;98053.50;;;-0.66;100.00
13867;BME280;7003;46.982;15.248;2023-02-28T03:45:57;98052.00;;;-0.62;100.00
13867;BME280;7003;46.982;15.248;2023-02-28T03:48:32;98045.22;;;-0.63;100.00
13867;BME280;7003;46.982;15.248;2023-02-28T03:51:06;98049.88;;;-0.65;100.00
13867;BME280;7003;46.982;15.248;2023-02-28T03:53:42;98046.25;;;-0.64;100.00
13867;BME280;7003;46.982;15.248;2023-02-28T03:56:16;98055.91;;;-0.64;100.00
13867;BME280;7003;46.982;15.248;2023-02-28T03:58:49;98049.31;;;-0.67;100.00
13867;BME280;7003;46.982;15.248;2023-02-28T04:01:20;98053.28;;;-0.64;100.00
13867;BME280;7003;46.982;15.248;2023-02-28T04:03:51;98049.97;;;-0.60;100.00
13867;BME280;7003;46.982;15.248;2023-02-28T04:06:22;98054.06;;;-0.64;100.00
13867;BME280;7003;46.982;15.248;2023-02-28T04:08:51;98057.59;;;-0.58;100.00
13867;BME280;7003;46.982;15.248;2023-02-28T04:11:22;98054.97;;;-0.58;100.00
13867;BME280;7003;46.982;15.248;2023-02-28T04:13:50;98053.16;;;-0.58;100.00
13867;BME280;7003;46.982;15.248;2023-02-28T04:16:19;98054.41;;;-0.60;100.00
13867;BME280;7003;46.982;15.248;2023-02-28T04:18:46;98063.72;;;-0.64;100.00
13867;BME280;7003;46.982;15.248;2023-02-28T04:21:16;98062.59;;;-0.68;100.00
13867;BME280;7003;46.982;15.248;2023-02-28T04:23:48;98069.19;;;-0.66;100.00
13867;BME280;7003;46.982;15.248;2023-02-28T04:26:19;98069.19;;;-0.66;100.00
13867;BME280;7003;46.982;15.248;2023-02-28T04:28:46;98069.97;;;-0.77;100.00
13867;BME280;7003;46.982;15.248;2023-02-28T04:31:13;98075.69;;;-0.80;100.00
13867;BME280;7003;46.982;15.248;2023-02-28T04:33:40;98069.31;;;-0.84;100.00
13867;BME280;7003;46.982;15.248;2023-02-28T04:36:08;98077.16;;;-0.84;100.00
13867;BME280;7003;46.982;15.248;2023-02-28T04:38:37;98064.88;;;-0.84;100.00
13867;BME280;7003;46.982;15.248;2023-02-28T04:41:07;98071.03;;;-0.78;100.00
13867;BME280;7003;46.982;15.248;2023-02-28T04:43:35;98080.91;;;-0.80;100.00
13867;BME280;7003;46.982;15.248;2023-02-28T04:46:04;98070.91;;;-0.83;100.00
13867;BME280;7003;46.982;15.248;2023-02-28T04:48:33;98067.50;;;-0.84;100.00
13867;BME280;7003;46.982;15.248;2023-02-28T04:51:01;98072.06;;;-0.79;100.00
13867;BME280;7003;46.982;15.248;2023-02-28T04:53:29;98078.28;;;-0.80;100.00
13867;BME280;7003;46.982;15.248;2023-02-28T04:55:59;98069.44;;;-0.79;100.00
13867;BME280;7003;46.982;15.248;2023-02-28T04:58:26;98071.94;;;-0.72;100.00
13867;BME280;7003;46.982;15.248;2023-02-28T05:01:02;98065.19;;;-0.68;100.00
13867;BME280;7003;46.982;15.248;2023-02-28T05:03:31;98064.97;;;-0.67;100.00
13867;BME280;7003;46.982;15.248;2023-02-28T05:05:58;98069.88;;;-0.70;100.00
13867;BME280;7003;46.982;15.248;2023-02-28T05:08:25;98072.38;;;-0.75;100.00
13867;BME280;7003;46.982;15.248;2023-02-28T05:10:58;98064.09;;;-0.72;100.00
13867;BME280;7003;46.982;15.248;2023-02-28T05:13:26;98060.91;;;-0.74;100.00
13867;BME280;7003;46.982;15.248;2023-02-28T05:15:57;98072.06;;;-0.79;100.00
13867;BME280;7003;46.982;15.248;2023-02-28T05:18:24;98063.66;;;-0.81;100.00
13867;BME280;7003;46.982;15.248;2023-02-28T05:20:52;98076.03;;;-0.88;100.00
13867;BME280;7003;46.982;15.248;2023-02-28T05:23:19;98070.34;;;-0.73;100.00
13867;BME280;7003;46.982;15.248;2023-02-28T05:25:49;98074.19;;;-0.76;100.00
13867;BME280;7003;46.982;15.248;2023-02-28T05:28:20;98081.34;;;-0.83;100.00
13867;BME280;7003;46.982;15.248;2023-02-28T05:30:47;98084.97;;;-0.84;100.00
13867;BME280;7003;46.982;15.248;2023-02-28T05:33:18;98084.53;;;-0.81;100.00
13867;BME280;7003;46.982;15.248;2023-02-28T05:35:47;98088.19;;;-0.82;100.00
13867;BME280;7003;46.982;15.248;2023-02-28T05:38:17;98090.22;;;-0.84;100.00
13867;BME280;7003;46.982;15.248;2023-02-28T05:40:48;98090.53;;;-0.69;100.00
13867;BME280;7003;46.982;15.248;2023-02-28T05:43:19;98097.25;;;-0.73;100.00
13867;BME280;7003;46.982;15.248;2023-02-28T05:45:49;98096.47;;;-0.97;100.00
13867;BME280;7003;46.982;15.248;2023-02-28T05:48:22;98095.44;;;-0.84;100.00
13867;BME280;7003;46.982;15.248;2023-02-28T05:50:52;98098.88;;;-0.95;100.00
13867;BME280;7003;46.982;15.248;2023-02-28T05:53:21;98089.53;;;-0.91;100.00
13867;BME280;7003;46.982;15.248;2023-02-28T05:55:49;98101.81;;;-1.03;100.00
13867;BME280;7003;46.982;15.248;2023-02-28T05:58:18;98108.81;;;-1.16;100.00
13867;BME280;7003;46.982;15.248;2023-02-28T06:00:48;98107.28;;;-0.93;100.00
13867;BME280;7003;46.982;15.248;2023-02-28T06:03:19;98106.13;;;-1.09;100.00
13867;BME280;7003;46.982;15.248;2023-02-28T06:05:50;98103.16;;;-0.89;100.00
13867;BME280;7003;46.982;15.248;2023-02-28T06:08:21;98119.28;;;-1.04;100.00
13867;BME280;7003;46.982;15.248;2023-02-28T06:10:56;98118.50;;;-1.04;100.00
13867;BME280;7003;46.982;15.248;2023-02-28T06:13:25;98124.84;;;-1.00;100.00
13867;BME280;7003;46.982;15.248;2023-02-28T06:15:54;98122.94;;;-0.93;100.00
13867;BME280;7003;46.982;15.248;2023-02-28T06:18:24;98125.09;;;-0.90;100.00
13867;BME280;7003;46.982;15.248;2023-02-28T06:20:54;98132.34;;;-0.92;100.00
13867;BME280;7003;46.982;15.248;2023-02-28T06:23:23;98133.59;;;-0.95;100.00
13867;BME280;7003;46.982;15.248;2023-02-28T06:25:52;98134.16;;;-0.93;100.00
13867;BME280;7003;46.982;15.248;2023-02-28T06:28:25;98131.44;;;-0.98;100.00
13867;BME280;7003;46.982;15.248;2023-02-28T06:30:56;98141.09;;;-0.98;100.00
13867;BME280;7003;46.982;15.248;2023-02-28T06:33:26;98141.66;;;-0.96;100.00
13867;BME280;7003;46.982;15.248;2023-02-28T06:35:56;98147.13;;;-0.74;100.00
13867;BME280;7003;46.982;15.248;2023-02-28T06:38:25;98146.00;;;-0.79;100.00
13867;BME280;7003;46.982;15.248;2023-02-28T06:40:54;98140.84;;;-0.85;100.00
13867;BME280;7003;46.982;15.248;2023-02-28T06:43:24;98157.56;;;-0.86;100.00
13867;BME280;7003;46.982;15.248;2023-02-28T06:45:54;98152.00;;;-0.78;100.00
13867;BME280;7003;46.982;15.248;2023-02-28T06:48:22;98155.44;;;-0.77;100.00
13867;BME280;7003;46.982;15.248;2023-02-28T06:50:50;98156.91;;;-0.70;100.00
13867;BME280;7003;46.982;15.248;2023-02-28T06:53:20;98159.72;;;-0.60;100.00
13867;BME280;7003;46.982;15.248;2023-02-28T06:55:50;98163.34;;;-0.61;100.00
13867;BME280;7003;46.982;15.248;2023-02-28T06:58:18;98168.47;;;-0.66;100.00
13867;BME280;7003;46.982;15.248;2023-02-28T07:00:50;98161.06;;;-0.69;100.00
13867;BME280;7003;46.982;15.248;2023-02-28T07:03:18;98162.91;;;-0.58;100.00
13867;BME280;7003;46.982;15.248;2023-02-28T07:05:49;98164.59;;;-0.52;100.00
13867;BME280;7003;46.982;15.248;2023-02-28T07:08:18;98164.03;;;-0.54;100.00
13867;BME280;7003;46.982;15.248;2023-02-28T07:10:47;98163.44;;;-0.44;100.00
13867;BME280;7003;46.982;15.248;2023-02-28T07:13:14;98165.84;;;-0.43;100.00
13867;BME280;7003;46.982;15.248;2023-02-28T07:15:42;98164.91;;;-0.36;100.00
13867;BME280;7003;46.982;15.248;2023-02-28T07:18:11;98173.00;;;-0.50;100.00
13867;BME280;7003;46.982;15.248;2023-02-28T07:20:39;98171.06;;;-0.43;100.00
13867;BME280;7003;46.982;15.248;2023-02-28T07:23:07;98166.59;;;-0.30;100.00
13867;BME280;7003;46.982;15.248;2023-02-28T07:25:36;98169.22;;;-0.30;100.00
13867;BME280;7003;46.982;15.248;2023-02-28T07:28:05;98175.25;;;-0.30;100.00
13867;BME280;7003;46.982;15.248;2023-02-28T07:30:33;98175.25;;;-0.30;100.00
13867;BME280;7003;46.982;15.248;2023-02-28T07:33:01;98175.16;;;-0.23;100.00
13867;BME280;7003;46.982;15.248;2023-02-28T07:35:32;98175.00;;;-0.17;100.00
13867;BME280;7003;46.982;15.248;2023-02-28T07:38:00;98171.69;;;-0.12;100.00
13867;BME280;7003;46.982;15.248;2023-02-28T07:40:32;98173.28;;;-0.11;100.00
13867;BME280;7003;46.982;15.248;2023-02-28T07:43:04;98178.72;;;-0.01;100.00
13867;BME280;7003;46.982;15.248;2023-02-28T07:45:32;98183.97;;;-0.01;100.00
13867;BME280;7003;46.982;15.248;2023-02-28T07:48:01;98193.41;;;-0.12;100.00
13867;BME280;7003;46.982;15.248;2023-02-28T07:50:29;98186.00;;;-0.03;100.00
13867;BME280;7003;46.982;15.248;2023-02-28T07:52:58;98186.66;;;0.04;100.00
13867;BME280;7003;46.982;15.248;2023-02-28T07:55:26;98193.81;;;0.09;100.00
13867;BME280;7003;46.982;15.248;2023-02-28T07:57:55;98191.63;;;0.17;100.00
13867;BME280;7003;46.982;15.248;2023-02-28T08:00:27;98201.78;;;0.14;100.00
13867;BME280;7003;46.982;15.248;2023-02-28T08:02:58;98195.41;;;0.10;100.00
13867;BME280;7003;46.982;15.248;2023-02-28T08:05:26;98190.31;;;0.03;100.00
13867;BME280;7003;46.982;15.248;2023-02-28T08:07:56;98194.44;;;-0.01;100.00
13867;BME280;7003;46.982;15.248;2023-02-28T08:10:28;98197.47;;;0.08;100.00
13867;BME280;7003;46.982;15.248;2023-02-28T08:12:59;98197.34;;;0.14;100.00
13867;BME280;7003;46.982;15.248;2023-02-28T08:15:29;98204.16;;;0.15;100.00
13867;BME280;7003;46.982;15.248;2023-02-28T08:18:00;98200.69;;;0.26;100.00
13867;BME280;7003;46.982;15.248;2023-02-28T08:20:30;98205.44;;;0.01;100.00
13867;BME280;7003;46.982;15.248;2023-02-28T08:22:58;98204.22;;;-0.08;100.00
13867;BME280;7003;46.982;15.248;2023-02-28T08:25:26;98205.56;;;0.06;100.00
13867;BME280;7003;46.982;15.248;2023-02-28T08:27:54;98199.97;;;0.03;100.00
13867;BME280;7003;46.982;15.248;2023-02-28T08:30:22;98203.88;;;0.00;100.00
13867;BME280;7003;46.982;15.248;2023-02-28T08:32:54;98210.00;;;-0.06;100.00
13867;BME280;7003;46.982;15.248;2023-02-28T08:35:21;98203.63;;;0.02;100.00
13867;BME280;7003;46.982;15.248;2023-02-28T08:37:52;98200.78;;;0.03;100.00
13867;BME280;7003;46.982;15.248;2023-02-28T08:40:20;98214.06;;;0.13;100.00
13867;BME280;7003;46.982;15.248;2023-02-28T08:42:48;98211.91;;;0.10;100.00
13867;BME280;7003;46.982;15.248;2023-02-28T08:45:19;98208.59;;;0.15;100.00
13867;BME280;7003;46.982;15.248;2023-02-28T08:47:49;98198.78;;;0.22;100.00
13867;BME280;7003;46.982;15.248;2023-02-28T08:50:20;98203.66;;;0.30;100.00
13867;BME280;7003;46.982;15.248;2023-02-28T08:52:50;98205.28;;;0.48;100.00
13867;BME280;7003;46.982;15.248;2023-02-28T08:55:18;98196.41;;;0.49;100.00
13867;BME280;7003;46.982;15.248;2023-02-28T08:57:46;98198.22;;;0.48;100.00
13867;BME280;7003;46.982;15.248;2023-02-28T09:00:17;98206.63;;;0.62;100.00
13867;BME280;7003;46.982;15.248;2023-02-28T09:02:45;98204.56;;;0.81;100.00
13867;BME280;7003;46.982;15.248;2023-02-28T09:05:13;98206.56;;;0.90;100.00
13867;BME280;7003;46.982;15.248;2023-02-28T09:07:43;98210.94;;;1.01;100.00
13867;BME280;7003;46.982;15.248;2023-02-28T09:10:14;98207.38;;;1.07;100.00
13867;BME280;7003;46.982;15.248;2023-02-28T09:12:42;98206.75;;;1.00;100.00
13867;BME280;7003;46.982;15.248;2023-02-28T09:15:12;98210.22;;;0.89;100.00
13867;BME280;7003;46.982;15.248;2023-02-28T09:17:43;98208.75;;;0.65;100.00
13867;BME280;7003;46.982;15.248;2023-02-28T09:20:12;98210.94;;;0.85;100.00
13867;BME280;7003;46.982;15.248;2023-02-28T09:22:44;98204.91;;;1.01;100.00
13867;BME280;7003;46.982;15.248;2023-02-28T09:25:12;98212.75;;;1.01;100.00
13867;BME280;7003;46.982;15.248;2023-02-28T09:27:42;98212.13;;;0.94;100.00
13867;BME280;7003;46.982;15.248;2023-02-28T09:30:12;98208.19;;;1.08;100.00
13867;BME280;7003;46.982;15.248;2023-02-28T09:32:40;98211.97;;;1.17;100.00
13867;BME280;7003;46.982;15.248;2023-02-28T09:35:09;98215.06;;;0.97;100.00
13867;BME280;7003;46.982;15.248;2023-02-28T09:37:44;98211.50;;;1.03;100.00
13867;BME280;7003;46.982;15.248;2023-02-28T09:40:15;98216.44;;;1.00;100.00
13867;BME280;7003;46.982;15.248;2023-02-28T09:42:47;98215.25;;;1.07;100.00
13867;BME280;7003;46.982;15.248;2023-02-28T09:45:22;98214.84;;;1.15;100.00
13867;BME280;7003;46.982;15.248;2023-02-28T09:47:53;98210.16;;;1.34;100.00
13867;BME280;7003;46.982;15.248;2023-02-28T09:50:29;98210.59;;;1.48;100.00
13867;BME280;7003;46.982;15.248;2023-02-28T09:53:09;98201.69;;;1.66;100.00
13867;BME280;7003;46.982;15.248;2023-02-28T09:55:42;98205.03;;;1.78;100.00
13867;BME280;7003;46.982;15.248;2023-02-28T09:58:20;98207.03;;;1.92;100.00
13867;BME280;7003;46.982;15.248;2023-02-28T10:00:58;98205.38;;;1.86;100.00
13867;BME280;7003;46.982;15.248;2023-02-28T10:03:32;98205.94;;;1.88;100.00
13867;BME280;7003;46.982;15.248;2023-02-28T10:06:08;98202.81;;;1.91;100.00
13867;BME280;7003;46.982;15.248;2023-02-28T10:08:47;98209.09;;;1.69;100.00
13867;BME280;7003;46.982;15.248;2023-02-28T10:11:19;98203.91;;;1.74;100.00
13867;BME280;7003;46.982;15.248;2023-02-28T10:13:52;98205.31;;;2.03;100.00
13867;BME280;7003;46.982;15.248;2023-02-28T10:16:27;98207.41;;;2.23;100.00
13867;BME280;7003;46.982;15.248;2023-02-28T10:19:02;98206.00;;;2.37;100.00
13867;BME280;7003;46.982;15.248;2023-02-28T10:21:37;98201.66;;;2.48;100.00
13867;BME280;7003;46.982;15.248;2023-02-28T10:24:20;98203.28;;;2.54;100.00
13867;BME280;7003;46.982;15.248;2023-02-28T10:26:52;98203.56;;;2.57;100.00
13867;BME280;7003;46.982;15.248;2023-02-28T10:29:25;98198.84;;;2.32;100.00
13867;BME280;7003;46.982;15.248;2023-02-28T10:31:53;98199.75;;;2.43;100.00
13867;BME280;7003;46.982;15.248;2023-02-28T10:34:22;98208.47;;;2.49;100.00
13867;BME280;7003;46.982;15.248;2023-02-28T10:36:50;98198.31;;;2.57;100.00
13867;BME280;7003;46.982;15.248;2023-02-28T10:39:46;98197.75;;;2.77;100.00
13867;BME280;7003;46.982;15.248;2023-02-28T10:42:23;98201.03;;;2.94;100.00
13867;BME280;7003;46.982;15.248;2023-02-28T10:45:05;98194.28;;;3.03;100.00
13867;BME280;7003;46.982;15.248;2023-02-28T10:47:34;98183.59;;;3.15;100.00
13867;BME280;7003;46.982;15.248;2023-02-28T10:50:27;98184.75;;;3.29;100.00
13867;BME280;7003;46.982;15.248;2023-02-28T10:53:10;98185.25;;;3.26;98.91
13867;BME280;7003;46.982;15.248;2023-02-28T10:55:44;98180.06;;;3.36;97.99
13867;BME280;7003;46.982;15.248;2023-02-28T10:58:21;98182.59;;;3.21;95.68
13867;BME280;7003;46.982;15.248;2023-02-28T11:00:49;98176.94;;;3.39;97.77
13867;BME280;7003;46.982;15.248;2023-02-28T11:03:25;98175.25;;;3.65;93.54
13867;BME280;7003;46.982;15.248;2023-02-28T11:05:53;98174.00;;;3.78;90.40
13867;BME280;7003;46.982;15.248;2023-02-28T11:08:21;98167.97;;;3.87;87.16
13867;BME280;7003;46.982;15.248;2023-02-28T11:10:56;98163.91;;;3.65;90.21
13867;BME280;7003;46.982;15.248;2023-02-28T11:13:32;98161.13;;;3.34;87.74
13867;BME280;7003;46.982;15.248;2023-02-28T11:16:03;98155.28;;;3.74;88.43
13867;BME280;7003;46.982;15.248;2023-02-28T11:18:40;98143.84;;;4.06;84.88
13867;BME280;7003;46.982;15.248;2023-02-28T11:21:11;98151.28;;;4.29;85.61
13867;BME280;7003;46.982;15.248;2023-02-28T11:23:46;98142.38;;;4.40;78.58
13867;BME280;7003;46.982;15.248;2023-02-28T11:26:40;98143.72;;;4.63;79.92
13867;BME280;7003;46.982;15.248;2023-02-28T11:29:19;98136.88;;;4.82;72.46
13867;BME280;7003;46.982;15.248;2023-02-28T11:32:04;98137.41;;;4.79;73.34
13867;BME280;7003;46.982;15.248;2023-02-28T11:34:35;98131.88;;;4.86;76.51
13867;BME280;7003;46.982;15.248;2023-02-28T11:37:05;98132.38;;;4.57;82.18
13867;BME280;7003;46.982;15.248;2023-02-28T11:39:33;98136.09;;;4.61;78.11
13867;BME280;7003;46.982;15.248;2023-02-28T11:42:15;98137.41;;;4.79;77.05
13867;BME280;7003;46.982;15.248;2023-02-28T11:45:02;98130.56;;;5.09;75.38
13867;BME280;7003;46.982;15.248;2023-02-28T11:47:44;98124.50;;;4.93;71.16
13867;BME280;7003;46.982;15.248;2023-02-28T11:50:26;98119.47;;;5.17;73.95
13867;BME280;7003;46.982;15.248;2023-02-28T11:52:57;98123.69;;;5.18;71.44
13867;BME280;7003;46.982;15.248;2023-02-28T11:55:33;98121.59;;;4.99;72.84
13867;BME280;7003;46.982;15.248;2023-02-28T11:58:17;98126.34;;;4.92;73.58
13867;BME280;7003;46.982;15.248;2023-02-28T12:01:01;98118.97;;;4.94;71.57
13867;BME280;7003;46.982;15.248;2023-02-28T12:03:42;98118.44;;;4.87;73.37
13867;BME280;7003;46.982;15.248;2023-02-28T12:06:18;98115.25;;;4.90;74.04
13867;BME280;7003;46.982;15.248;2023-02-28T12:08:53;98110.00;;;4.95;74.56
13867;BME280;7003;46.982;15.248;2023-02-28T12:11:38;98104.44;;;5.12;74.30
13867;BME280;7003;46.982;15.248;2023-02-28T12:14:41;98104.69;;;5.21;73.86
13867;BME280;7003;46.982;15.248;2023-02-28T12:17:25;98099.16;;;5.12;74.38
13867;BME280;7003;46.982;15.248;2023-02-28T12:20:05;98101.56;;;4.78;78.65
13867;BME280;7003;46.982;15.248;2023-02-28T12:22:41;98104.59;;;3.94;81.10
13867;BME280;7003;46.982;15.248;2023-02-28T12:25:48;98101.91;;;3.79;80.28
13867;BME280;7003;46.982;15.248;2023-02-28T12:28:21;98099.22;;;3.69;85.35
13867;BME280;7003;46.982;15.248;2023-02-28T12:30:59;98096.78;;;3.05;91.22
13867;BME280;7003;46.982;15.248;2023-02-28T12:33:34;98096.34;;;2.81;91.78
13867;BME280;7003;46.982;15.248;2023-02-28T12:36:07;98091.03;;;3.13;94.45
13867;BME280;7003;46.982;15.248;2023-02-28T12:38:43;98089.31;;;3.34;91.28
13867;BME280;7003;46.982;15.248;2023-02-28T12:41:18;98088.66;;;3.59;93.06
13867;BME280;7003;46.982;15.248;2023-02-28T12:43:55;98091.25;;;3.01;95.03
13867;BME280;7003;46.982;15.248;2023-02-28T12:46:33;98082.13;;;3.14;93.56
13867;BME280;7003;46.982;15.248;2023-02-28T12:49:08;98093.78;;;2.91;93.13
13867;BME280;7003;46.982;15.248;2023-02-28T12:51:38;98089.28;;;2.87;96.37
13867;BME280;7003;46.982;15.248;2023-02-28T12:54:15;98084.53;;;2.84;95.95
13867;BME280;7003;46.982;15.248;2023-02-28T12:56:55;98087.97;;;2.52;98.25
13867;BME280;7003;46.982;15.248;2023-02-28T12:59:27;98085.09;;;2.86;93.65
13867;BME280;7003;46.982;15.248;2023-02-28T13:05:29;98072.63;;;3.08;89.86
13867;BME280;7003;46.982;15.248;2023-02-28T13:08:24;98075.50;;;3.06;92.29
13867;BME280;7003;46.982;15.248;2023-02-28T13:10:57;98074.59;;;2.91;88.13
13867;BME280;7003;46.982;15.248;2023-02-28T13:13:27;98077.63;;;3.09;89.51
13867;BME280;7003;46.982;15.248;2023-02-28T13:16:03;98070.41;;;2.90;90.57
13867;BME280;7003;46.982;15.248;2023-02-28T13:18:36;98069.50;;;2.74;98.00
13867;BME280;7003;46.982;15.248;2023-02-28T13:21:21;98069.81;;;2.83;98.96
13867;BME280;7003;46.982;15.248;2023-02-28T13:23:59;98065.75;;;3.02;95.51
13867;BME280;7003;46.982;15.248;2023-02-28T13:29:36;98065.81;;;2.75;98.37
13867;BME280;7003;46.982;15.248;2023-02-28T13:32:33;98066.53;;;2.65;95.88
13867;BME280;7003;46.982;15.248;2023-02-28T13:35:38;98062.53;;;2.58;99.72
13867;BME280;7003;46.982;15.248;2023-02-28T13:38:33;98057.44;;;2.78;96.48
13867;BME280;7003;46.982;15.248;2023-02-28T13:41:40;98055.75;;;2.99;100.00